sensor_id;sensor_type;location;lat;lon;timestamp;temperature;humidity
75786;DHT22;64402;44.708;37.644;2023-04-06T00:01:41;9.97;85.88
75786;DHT22;64402;44.708;37.644;2023-04-06T00:04:07;9.88;86.54
75786;DHT22;64402;44.708;37.644;2023-04-06T00:06:33;9.84;86.78
75786;DHT22;64402;44.708;37.644;2023-04-06T00:09:00;9.88;85.84
75786;DHT22;64402;44.708;37.644;2023-04-06T00:11:26;9.84;85.62
75786;DHT22;64402;44.708;37.644;2023-04-06T00:13:53;9.81;85.48
75786;DHT22;64402;44.708;37.644;2023-04-06T00:16:19;9.80;85.66
75786;DHT22;64402;44.708;37.644;2023-04-06T00:18:46;9.76;85.48
75786;DHT22;64402;44.708;37.644;2023-04-06T00:21:12;9.81;85.26
75786;DHT22;64402;44.708;37.644;2023-04-06T00:23:40;9.81;85.20
75786;DHT22;64402;44.708;37.644;2023-04-06T00:26:07;9.84;84.64
75786;DHT22;64402;44.708;37.644;2023-04-06T00:28:34;9.86;84.71
75786;DHT22;64402;44.708;37.644;2023-04-06T00:31:00;9.85;84.87
75786;DHT22;64402;44.708;37.644;2023-04-06T00:33:26;9.86;84.55
75786;DHT22;64402;44.708;37.644;2023-04-06T00:35:53;9.79;84.87
75786;DHT22;64402;44.708;37.644;2023-04-06T00:38:19;9.80;85.07
75786;DHT22;64402;44.708;37.644;2023-04-06T00:40:45;9.82;84.64
75786;DHT22;64402;44.708;37.644;2023-04-06T00:43:12;9.81;84.71
75786;DHT22;64402;44.708;37.644;2023-04-06T00:45:39;9.81;84.83
75786;DHT22;64402;44.708;37.644;2023-04-06T00:48:06;9.82;84.77
75786;DHT22;64402;44.708;37.644;2023-04-06T00:50:33;9.82;84.57
75786;DHT22;64402;44.708;37.644;2023-04-06T00:52:59;9.86;84.10
75786;DHT22;64402;44.708;37.644;2023-04-06T00:55:29;9.88;83.89
75786;DHT22;64402;44.708;37.644;2023-04-06T00:57:59;9.90;84.14
75786;DHT22;64402;44.708;37.644;2023-04-06T01:00:26;9.93;83.71
75786;DHT22;64402;44.708;37.644;2023-04-06T01:02:53;9.93;83.78
75786;DHT22;64402;44.708;37.644;2023-04-06T01:05:19;9.90;83.84
75786;DHT22;64402;44.708;37.644;2023-04-06T01:07:46;9.88;83.61
75786;DHT22;64402;44.708;37.644;2023-04-06T01:10:25;9.89;83.40
75786;DHT22;64402;44.708;37.644;2023-04-06T01:12:52;9.90;83.52
75786;DHT22;64402;44.708;37.644;2023-04-06T01:15:18;9.93;83.38
75786;DHT22;64402;44.708;37.644;2023-04-06T01:17:45;9.91;83.42
75786;DHT22;64402;44.708;37.644;2023-04-06T01:20:11;9.89;84.41
75786;DHT22;64402;44.708;37.644;2023-04-06T01:22:38;9.83;84.52
75786;DHT22;64402;44.708;37.644;2023-04-06T01:25:04;9.70;84.83
75786;DHT22;64402;44.708;37.644;2023-04-06T01:27:31;9.64;85.43
75786;DHT22;64402;44.708;37.644;2023-04-06T01:29:57;9.69;85.28
75786;DHT22;64402;44.708;37.644;2023-04-06T01:32:24;9.72;85.03
75786;DHT22;64402;44.708;37.644;2023-04-06T01:34:50;9.72;84.74
75786;DHT22;64402;44.708;37.644;2023-04-06T01:37:16;9.75;83.97
75786;DHT22;64402;44.708;37.644;2023-04-06T01:39:43;9.80;83.78
75786;DHT22;64402;44.708;37.644;2023-04-06T01:42:10;9.81;83.89
75786;DHT22;64402;44.708;37.644;2023-04-06T01:44:36;9.80;83.27
75786;DHT22;64402;44.708;37.644;2023-04-06T01:47:03;9.82;83.52
75786;DHT22;64402;44.708;37.644;2023-04-06T01:49:29;9.77;83.49
75786;DHT22;64402;44.708;37.644;2023-04-06T01:51:55;9.70;83.49
75786;DHT22;64402;44.708;37.644;2023-04-06T01:54:22;9.66;84.00
75786;DHT22;64402;44.708;37.644;2023-04-06T01:56:48;9.67;84.01
75786;DHT22;64402;44.708;37.644;2023-04-06T01:59:16;9.67;83.41
75786;DHT22;64402;44.708;37.644;2023-04-06T02:01:42;9.69;83.72
75786;DHT22;64402;44.708;37.644;2023-04-06T02:04:08;9.66;83.28
75786;DHT22;64402;44.708;37.644;2023-04-06T02:06:34;9.67;83.39
75786;DHT22;64402;44.708;37.644;2023-04-06T02:09:00;9.63;83.67
75786;DHT22;64402;44.708;37.644;2023-04-06T02:11:26;9.60;83.54
75786;DHT22;64402;44.708;37.644;2023-04-06T02:13:52;9.53;83.70
75786;DHT22;64402;44.708;37.644;2023-04-06T02:16:19;9.48;84.35
75786;DHT22;64402;44.708;37.644;2023-04-06T02:18:45;9.42;84.71
75786;DHT22;64402;44.708;37.644;2023-04-06T02:21:11;9.49;84.91
75786;DHT22;64402;44.708;37.644;2023-04-06T02:23:38;9.45;85.03
75786;DHT22;64402;44.708;37.644;2023-04-06T02:26:04;9.48;84.97
75786;DHT22;64402;44.708;37.644;2023-04-06T02:28:30;9.40;85.75
75786;DHT22;64402;44.708;37.644;2023-04-06T02:30:57;9.41;85.77
75786;DHT22;64402;44.708;37.644;2023-04-06T02:33:23;9.44;85.14
75786;DHT22;64402;44.708;37.644;2023-04-06T02:35:49;9.48;84.61
75786;DHT22;64402;44.708;37.644;2023-04-06T02:38:15;9.49;84.80
75786;DHT22;64402;44.708;37.644;2023-04-06T02:40:41;9.48;84.65
75786;DHT22;64402;44.708;37.644;2023-04-06T02:43:07;9.48;84.74
75786;DHT22;64402;44.708;37.644;2023-04-06T02:45:33;9.45;84.83
75786;DHT22;64402;44.708;37.644;2023-04-06T02:47:59;9.47;85.10
75786;DHT22;64402;44.708;37.644;2023-04-06T02:50:26;9.41;85.19
75786;DHT22;64402;44.708;37.644;2023-04-06T02:52:52;9.33;85.83
75786;DHT22;64402;44.708;37.644;2023-04-06T02:55:19;9.22;87.28
75786;DHT22;64402;44.708;37.644;2023-04-06T02:57:45;9.20;87.01
75786;DHT22;64402;44.708;37.644;2023-04-06T03:00:12;9.20;87.04
75786;DHT22;64402;44.708;37.644;2023-04-06T03:02:38;9.20;87.16
75786;DHT22;64402;44.708;37.644;2023-04-06T03:05:04;9.19;87.27
75786;DHT22;64402;44.708;37.644;2023-04-06T03:07:31;9.21;87.05
75786;DHT22;64402;44.708;37.644;2023-04-06T03:09:57;9.24;87.04
75786;DHT22;64402;44.708;37.644;2023-04-06T03:12:23;9.33;86.75
75786;DHT22;64402;44.708;37.644;2023-04-06T03:14:49;9.35;86.36
75786;DHT22;64402;44.708;37.644;2023-04-06T03:17:15;9.39;86.03
75786;DHT22;64402;44.708;37.644;2023-04-06T03:19:41;9.44;85.52
75786;DHT22;64402;44.708;37.644;2023-04-06T03:22:08;9.46;84.85
75786;DHT22;64402;44.708;37.644;2023-04-06T03:24:34;9.44;84.77
75786;DHT22;64402;44.708;37.644;2023-04-06T03:27:00;9.42;85.09
75786;DHT22;64402;44.708;37.644;2023-04-06T03:29:26;9.38;84.93
75786;DHT22;64402;44.708;37.644;2023-04-06T03:31:52;9.37;85.17
75786;DHT22;64402;44.708;37.644;2023-04-06T03:34:19;9.37;85.51
75786;DHT22;64402;44.708;37.644;2023-04-06T03:36:45;9.36;85.53
75786;DHT22;64402;44.708;37.644;2023-04-06T03:39:12;9.38;85.63
75786;DHT22;64402;44.708;37.644;2023-04-06T03:41:38;9.38;85.31
75786;DHT22;64402;44.708;37.644;2023-04-06T03:44:05;9.41;85.29
75786;DHT22;64402;44.708;37.644;2023-04-06T03:46:31;9.42;85.11
75786;DHT22;64402;44.708;37.644;2023-04-06T03:48:57;9.45;85.46
75786;DHT22;64402;44.708;37.644;2023-04-06T03:51:23;9.41;85.76
75786;DHT22;64402;44.708;37.644;2023-04-06T03:53:50;9.37;85.09
75786;DHT22;64402;44.708;37.644;2023-04-06T03:56:17;9.32;85.10
75786;DHT22;64402;44.708;37.644;2023-04-06T03:58:43;9.34;85.41
75786;DHT22;64402;44.708;37.644;2023-04-06T04:01:11;9.36;85.14
75786;DHT22;64402;44.708;37.644;2023-04-06T04:03:37;9.35;85.22
75786;DHT22;64402;44.708;37.644;2023-04-06T04:06:03;9.35;84.91
75786;DHT22;64402;44.708;37.644;2023-04-06T04:08:29;9.31;84.81
75786;DHT22;64402;44.708;37.644;2023-04-06T04:10:56;9.33;85.08
75786;DHT22;64402;44.708;37.644;2023-04-06T04:13:22;9.35;84.35
75786;DHT22;64402;44.708;37.644;2023-04-06T04:15:52;9.41;84.44
75786;DHT22;64402;44.708;37.644;2023-04-06T04:18:30;9.36;83.93
75786;DHT22;64402;44.708;37.644;2023-04-06T04:21:02;9.32;84.90
75786;DHT22;64402;44.708;37.644;2023-04-06T04:23:28;9.40;84.73
75786;DHT22;64402;44.708;37.644;2023-04-06T04:25:54;9.46;84.10
75786;DHT22;64402;44.708;37.644;2023-04-06T04:28:21;9.51;83.87
75786;DHT22;64402;44.708;37.644;2023-04-06T04:30:47;9.52;83.79
75786;DHT22;64402;44.708;37.644;2023-04-06T04:33:13;9.53;83.07
75786;DHT22;64402;44.708;37.644;2023-04-06T04:35:39;9.44;83.24
75786;DHT22;64402;44.708;37.644;2023-04-06T04:38:05;9.44;83.49
75786;DHT22;64402;44.708;37.644;2023-04-06T04:40:32;9.46;83.26
75786;DHT22;64402;44.708;37.644;2023-04-06T04:42:58;9.53;82.51
75786;DHT22;64402;44.708;37.644;2023-04-06T04:45:24;9.57;81.88
75786;DHT22;64402;44.708;37.644;2023-04-06T04:47:50;9.65;81.65
75786;DHT22;64402;44.708;37.644;2023-04-06T04:50:16;9.72;81.91
75786;DHT22;64402;44.708;37.644;2023-04-06T04:52:43;9.74;81.92
75786;DHT22;64402;44.708;37.644;2023-04-06T04:55:09;9.77;81.89
75786;DHT22;64402;44.708;37.644;2023-04-06T04:57:35;9.77;81.72
75786;DHT22;64402;44.708;37.644;2023-04-06T05:00:01;9.72;82.20
75786;DHT22;64402;44.708;37.644;2023-04-06T05:02:28;9.72;82.75
75786;DHT22;64402;44.708;37.644;2023-04-06T05:04:54;9.75;83.34
75786;DHT22;64402;44.708;37.644;2023-04-06T05:07:20;9.76;83.57
75786;DHT22;64402;44.708;37.644;2023-04-06T05:09:46;9.68;84.10
75786;DHT22;64402;44.708;37.644;2023-04-06T05:12:13;9.64;84.92
75786;DHT22;64402;44.708;37.644;2023-04-06T05:14:39;9.65;84.25
75786;DHT22;64402;44.708;37.644;2023-04-06T05:17:06;9.65;84.26
75786;DHT22;64402;44.708;37.644;2023-04-06T05:19:32;9.77;84.07
75786;DHT22;64402;44.708;37.644;2023-04-06T05:21:58;9.95;83.56
75786;DHT22;64402;44.708;37.644;2023-04-06T05:24:24;10.07;83.20
75786;DHT22;64402;44.708;37.644;2023-04-06T05:26:51;10.07;81.92
75786;DHT22;64402;44.708;37.644;2023-04-06T05:29:18;10.25;81.79
75786;DHT22;64402;44.708;37.644;2023-04-06T05:31:45;10.21;81.63
75786;DHT22;64402;44.708;37.644;2023-04-06T05:34:12;10.21;81.55
75786;DHT22;64402;44.708;37.644;2023-04-06T05:36:38;10.15;81.93
75786;DHT22;64402;44.708;37.644;2023-04-06T05:39:06;10.14;81.78
75786;DHT22;64402;44.708;37.644;2023-04-06T05:41:33;10.24;82.20
75786;DHT22;64402;44.708;37.644;2023-04-06T05:43:59;10.20;81.62
75786;DHT22;64402;44.708;37.644;2023-04-06T05:46:25;10.12;82.02
75786;DHT22;64402;44.708;37.644;2023-04-06T05:48:52;10.04;82.93
75786;DHT22;64402;44.708;37.644;2023-04-06T05:51:18;10.03;83.62
75786;DHT22;64402;44.708;37.644;2023-04-06T05:53:44;9.95;84.04
75786;DHT22;64402;44.708;37.644;2023-04-06T05:56:11;10.00;84.19
75786;DHT22;64402;44.708;37.644;2023-04-06T05:58:37;9.99;84.18
75786;DHT22;64402;44.708;37.644;2023-04-06T06:01:03;9.99;84.86
75786;DHT22;64402;44.708;37.644;2023-04-06T06:03:30;10.03;85.16
75786;DHT22;64402;44.708;37.644;2023-04-06T06:06:03;10.04;85.51
75786;DHT22;64402;44.708;37.644;2023-04-06T06:08:30;9.97;86.03
75786;DHT22;64402;44.708;37.644;2023-04-06T06:10:56;10.03;86.26
75786;DHT22;64402;44.708;37.644;2023-04-06T06:13:23;10.05;85.31
75786;DHT22;64402;44.708;37.644;2023-04-06T06:15:50;10.01;84.78
75786;DHT22;64402;44.708;37.644;2023-04-06T06:18:16;10.07;84.43
75786;DHT22;64402;44.708;37.644;2023-04-06T06:20:43;10.16;83.86
75786;DHT22;64402;44.708;37.644;2023-04-06T06:23:09;10.37;82.54
75786;DHT22;64402;44.708;37.644;2023-04-06T06:25:35;10.59;82.18
75786;DHT22;64402;44.708;37.644;2023-04-06T06:28:01;10.86;81.30
75786;DHT22;64402;44.708;37.644;2023-04-06T06:30:28;11.08;80.19
75786;DHT22;64402;44.708;37.644;2023-04-06T06:32:54;11.19;79.72
75786;DHT22;64402;44.708;37.644;2023-04-06T06:35:20;11.20;77.32
75786;DHT22;64402;44.708;37.644;2023-04-06T06:37:46;11.27;77.69
75786;DHT22;64402;44.708;37.644;2023-04-06T06:40:13;11.46;78.01
75786;DHT22;64402;44.708;37.644;2023-04-06T06:42:41;11.66;75.97
75786;DHT22;64402;44.708;37.644;2023-04-06T06:45:08;11.75;76.28
75786;DHT22;64402;44.708;37.644;2023-04-06T06:47:35;11.98;75.85
75786;DHT22;64402;44.708;37.644;2023-04-06T06:50:01;11.94;74.12
75786;DHT22;64402;44.708;37.644;2023-04-06T06:52:28;11.94;72.76
75786;DHT22;64402;44.708;37.644;2023-04-06T06:54:55;11.76;74.15
75786;DHT22;64402;44.708;37.644;2023-04-06T06:57:22;11.37;74.53
75786;DHT22;64402;44.708;37.644;2023-04-06T06:59:48;11.16;74.99
75786;DHT22;64402;44.708;37.644;2023-04-06T07:02:14;10.90;76.66
75786;DHT22;64402;44.708;37.644;2023-04-06T07:04:40;10.84;77.19
75786;DHT22;64402;44.708;37.644;2023-04-06T07:07:07;10.87;77.11
75786;DHT22;64402;44.708;37.644;2023-04-06T07:09:35;10.83;78.40
75786;DHT22;64402;44.708;37.644;2023-04-06T07:12:01;10.72;78.92
75786;DHT22;64402;44.708;37.644;2023-04-06T07:14:27;10.51;79.91
75786;DHT22;64402;44.708;37.644;2023-04-06T07:16:54;10.38;79.87
75786;DHT22;64402;44.708;37.644;2023-04-06T07:19:20;10.34;80.33
75786;DHT22;64402;44.708;37.644;2023-04-06T07:21:46;10.41;80.56
75786;DHT22;64402;44.708;37.644;2023-04-06T07:24:12;10.56;79.42
75786;DHT22;64402;44.708;37.644;2023-04-06T07:26:38;10.68;81.00
75786;DHT22;64402;44.708;37.644;2023-04-06T07:29:05;10.78;80.20
75786;DHT22;64402;44.708;37.644;2023-04-06T07:31:31;10.94;79.02
75786;DHT22;64402;44.708;37.644;2023-04-06T07:33:57;11.12;78.33
75786;DHT22;64402;44.708;37.644;2023-04-06T07:36:23;11.26;77.40
75786;DHT22;64402;44.708;37.644;2023-04-06T07:38:50;11.31;76.92
75786;DHT22;64402;44.708;37.644;2023-04-06T07:41:16;11.27;76.57
75786;DHT22;64402;44.708;37.644;2023-04-06T07:43:42;11.16;78.09
75786;DHT22;64402;44.708;37.644;2023-04-06T07:46:09;11.20;77.44
75786;DHT22;64402;44.708;37.644;2023-04-06T07:48:35;11.19;77.40
75786;DHT22;64402;44.708;37.644;2023-04-06T07:51:04;11.27;76.43
75786;DHT22;64402;44.708;37.644;2023-04-06T07:53:32;11.40;76.73
75786;DHT22;64402;44.708;37.644;2023-04-06T07:56:01;11.67;75.17
75786;DHT22;64402;44.708;37.644;2023-04-06T07:58:27;11.51;75.03
75786;DHT22;64402;44.708;37.644;2023-04-06T08:00:54;11.61;74.65
75786;DHT22;64402;44.708;37.644;2023-04-06T08:03:21;11.60;74.22
75786;DHT22;64402;44.708;37.644;2023-04-06T08:05:52;11.68;73.71
75786;DHT22;64402;44.708;37.644;2023-04-06T08:08:18;11.73;74.01
75786;DHT22;64402;44.708;37.644;2023-04-06T08:10:45;11.86;73.00
75786;DHT22;64402;44.708;37.644;2023-04-06T08:13:11;11.89;71.47
75786;DHT22;64402;44.708;37.644;2023-04-06T08:15:39;12.06;71.58
75786;DHT22;64402;44.708;37.644;2023-04-06T08:18:06;12.15;71.19
75786;DHT22;64402;44.708;37.644;2023-04-06T08:20:32;12.13;69.79
75786;DHT22;64402;44.708;37.644;2023-04-06T08:22:58;11.99;70.71
75786;DHT22;64402;44.708;37.644;2023-04-06T08:25:24;11.90;71.26
75786;DHT22;64402;44.708;37.644;2023-04-06T08:27:50;11.94;71.26
75786;DHT22;64402;44.708;37.644;2023-04-06T08:30:16;11.84;71.48
75786;DHT22;64402;44.708;37.644;2023-04-06T08:32:45;11.74;72.23
75786;DHT22;64402;44.708;37.644;2023-04-06T08:35:11;11.67;73.25
75786;DHT22;64402;44.708;37.644;2023-04-06T08:37:38;11.68;72.25
75786;DHT22;64402;44.708;37.644;2023-04-06T08:40:04;11.59;72.84
75786;DHT22;64402;44.708;37.644;2023-04-06T08:42:44;11.66;72.68
75786;DHT22;64402;44.708;37.644;2023-04-06T08:45:10;11.31;73.71
75786;DHT22;64402;44.708;37.644;2023-04-06T08:47:37;11.43;74.12
75786;DHT22;64402;44.708;37.644;2023-04-06T08:50:04;11.30;73.89
75786;DHT22;64402;44.708;37.644;2023-04-06T08:52:32;11.31;73.71
75786;DHT22;64402;44.708;37.644;2023-04-06T08:55:00;11.41;72.96
75786;DHT22;64402;44.708;37.644;2023-04-06T08:57:26;11.28;73.83
75786;DHT22;64402;44.708;37.644;2023-04-06T08:59:54;11.41;74.18
75786;DHT22;64402;44.708;37.644;2023-04-06T09:02:21;11.44;73.86
75786;DHT22;64402;44.708;37.644;2023-04-06T09:04:53;11.33;75.36
75786;DHT22;64402;44.708;37.644;2023-04-06T09:07:20;11.25;76.36
75786;DHT22;64402;44.708;37.644;2023-04-06T09:09:47;10.98;77.50
75786;DHT22;64402;44.708;37.644;2023-04-06T09:12:27;10.89;78.03
75786;DHT22;64402;44.708;37.644;2023-04-06T09:14:54;10.96;79.33
75786;DHT22;64402;44.708;37.644;2023-04-06T09:17:31;11.11;77.77
75786;DHT22;64402;44.708;37.644;2023-04-06T09:20:03;11.24;78.50
75786;DHT22;64402;44.708;37.644;2023-04-06T09:22:39;11.51;78.05
75786;DHT22;64402;44.708;37.644;2023-04-06T09:25:07;11.46;75.85
75786;DHT22;64402;44.708;37.644;2023-04-06T09:27:34;11.66;75.85
75786;DHT22;64402;44.708;37.644;2023-04-06T09:30:08;11.85;74.94
75786;DHT22;64402;44.708;37.644;2023-04-06T09:32:49;12.18;73.88
75786;DHT22;64402;44.708;37.644;2023-04-06T09:35:16;12.23;73.07
75786;DHT22;64402;44.708;37.644;2023-04-06T09:37:43;12.48;70.95
75786;DHT22;64402;44.708;37.644;2023-04-06T09:40:10;12.66;69.82
75786;DHT22;64402;44.708;37.644;2023-04-06T09:42:36;12.77;69.07
75786;DHT22;64402;44.708;37.644;2023-04-06T09:45:03;12.59;69.68
75786;DHT22;64402;44.708;37.644;2023-04-06T09:47:30;12.60;69.58
75786;DHT22;64402;44.708;37.644;2023-04-06T09:49:59;12.73;68.44
75786;DHT22;64402;44.708;37.644;2023-04-06T09:52:33;12.72;68.19
75786;DHT22;64402;44.708;37.644;2023-04-06T09:55:02;13.09;66.54
75786;DHT22;64402;44.708;37.644;2023-04-06T09:57:38;13.46;64.84
75786;DHT22;64402;44.708;37.644;2023-04-06T10:00:07;13.58;66.15
75786;DHT22;64402;44.708;37.644;2023-04-06T10:03:03;14.10;64.30
75786;DHT22;64402;44.708;37.644;2023-04-06T10:08:08;14.78;61.20
75786;DHT22;64402;44.708;37.644;2023-04-06T10:10:35;14.99;59.80
75786;DHT22;64402;44.708;37.644;2023-04-06T11:51:22;13.23;67.14
75786;DHT22;64402;44.708;37.644;2023-04-06T11:53:53;12.90;68.45
75786;DHT22;64402;44.708;37.644;2023-04-06T11:56:27;12.74;68.27
75786;DHT22;64402;44.708;37.644;2023-04-06T11:58:58;12.59;70.11
75786;DHT22;64402;44.708;37.644;2023-04-06T12:01:26;12.48;70.66
75786;DHT22;64402;44.708;37.644;2023-04-06T12:03:53;12.44;70.49
75786;DHT22;64402;44.708;37.644;2023-04-06T12:06:19;12.58;70.28
75786;DHT22;64402;44.708;37.644;2023-04-06T12:08:45;12.72;69.29
75786;DHT22;64402;44.708;37.644;2023-04-06T12:11:12;12.74;68.52
75786;DHT22;64402;44.708;37.644;2023-04-06T12:13:38;12.88;68.10
75786;DHT22;64402;44.708;37.644;2023-04-06T12:16:05;12.84;68.28
75786;DHT22;64402;44.708;37.644;2023-04-06T12:18:31;12.75;68.25
75786;DHT22;64402;44.708;37.644;2023-04-06T12:20:57;12.70;68.16
75786;DHT22;64402;44.708;37.644;2023-04-06T12:23:23;12.76;68.42
75786;DHT22;64402;44.708;37.644;2023-04-06T12:25:50;12.75;67.83
75786;DHT22;64402;44.708;37.644;2023-04-06T12:28:16;12.60;68.33
75786;DHT22;64402;44.708;37.644;2023-04-06T12:30:43;12.47;67.74
75786;DHT22;64402;44.708;37.644;2023-04-06T12:33:09;12.47;68.75
75786;DHT22;64402;44.708;37.644;2023-04-06T12:35:36;12.63;67.70
75786;DHT22;64402;44.708;37.644;2023-04-06T12:38:03;12.74;67.41
75786;DHT22;64402;44.708;37.644;2023-04-06T12:40:29;12.73;67.08
75786;DHT22;64402;44.708;37.644;2023-04-06T12:42:55;12.46;67.53
75786;DHT22;64402;44.708;37.644;2023-04-06T12:45:21;12.40;67.91
75786;DHT22;64402;44.708;37.644;2023-04-06T12:47:47;12.51;68.33
75786;DHT22;64402;44.708;37.644;2023-04-06T12:50:14;12.73;66.85
75786;DHT22;64402;44.708;37.644;2023-04-06T12:52:40;12.77;66.70
75786;DHT22;64402;44.708;37.644;2023-04-06T12:55:07;12.97;66.48
75786;DHT22;64402;44.708;37.644;2023-04-06T12:57:33;13.11;65.46
75786;DHT22;64402;44.708;37.644;2023-04-06T12:59:59;13.22;64.38
75786;DHT22;64402;44.708;37.644;2023-04-06T13:02:25;13.38;63.91
75786;DHT22;64402;44.708;37.644;2023-04-06T13:04:52;13.60;63.47
75786;DHT22;64402;44.708;37.644;2023-04-06T13:07:19;13.90;62.41
75786;DHT22;64402;44.708;37.644;2023-04-06T13:09:45;14.41;61.70
75786;DHT22;64402;44.708;37.644;2023-04-06T13:12:13;14.97;60.30
75786;DHT22;64402;44.708;37.644;2023-04-06T13:14:39;15.14;60.50
75786;DHT22;64402;44.708;37.644;2023-04-06T13:17:06;15.01;60.58
75786;DHT22;64402;44.708;37.644;2023-04-06T13:19:32;14.98;60.79
75786;DHT22;64402;44.708;37.644;2023-04-06T13:21:59;14.94;60.70
75786;DHT22;64402;44.708;37.644;2023-04-06T13:24:25;14.92;61.37
75786;DHT22;64402;44.708;37.644;2023-04-06T13:26:51;14.86;59.86
75786;DHT22;64402;44.708;37.644;2023-04-06T13:29:17;14.65;60.11
75786;DHT22;64402;44.708;37.644;2023-04-06T13:31:43;14.34;61.25
75786;DHT22;64402;44.708;37.644;2023-04-06T13:34:10;14.15;62.41
75786;DHT22;64402;44.708;37.644;2023-04-06T13:36:36;13.99;62.69
75786;DHT22;64402;44.708;37.644;2023-04-06T13:39:02;13.77;63.33
75786;DHT22;64402;44.708;37.644;2023-04-06T13:41:29;13.67;62.82
75786;DHT22;64402;44.708;37.644;2023-04-06T13:43:55;13.66;63.63
75786;DHT22;64402;44.708;37.644;2023-04-06T13:46:23;13.67;63.32
75786;DHT22;64402;44.708;37.644;2023-04-06T13:48:49;13.71;62.95
75786;DHT22;64402;44.708;37.644;2023-04-06T13:51:16;13.74;63.89
75786;DHT22;64402;44.708;37.644;2023-04-06T13:53:42;13.76;64.34
75786;DHT22;64402;44.708;37.644;2023-04-06T13:56:09;13.90;64.05
75786;DHT22;64402;44.708;37.644;2023-04-06T13:58:35;13.89;64.05
75786;DHT22;64402;44.708;37.644;2023-04-06T14:01:08;13.79;64.89
75786;DHT22;64402;44.708;37.644;2023-04-06T14:03:35;13.76;65.26
75786;DHT22;64402;44.708;37.644;2023-04-06T14:06:10;13.64;65.03
75786;DHT22;64402;44.708;37.644;2023-04-06T14:08:36;13.31;65.50
75786;DHT22;64402;44.708;37.644;2023-04-06T14:11:02;13.31;66.62
75786;DHT22;64402;44.708;37.644;2023-04-06T14:13:29;13.27;66.67
75786;DHT22;64402;44.708;37.644;2023-04-06T14:15:55;13.18;66.44
75786;DHT22;64402;44.708;37.644;2023-04-06T14:18:21;13.10;66.95
75786;DHT22;64402;44.708;37.644;2023-04-06T14:20:55;13.04;66.98
75786;DHT22;64402;44.708;37.644;2023-04-06T14:23:22;13.06;67.55
75786;DHT22;64402;44.708;37.644;2023-04-06T14:25:48;13.09;67.20
75786;DHT22;64402;44.708;37.644;2023-04-06T14:28:14;13.05;66.75
75786;DHT22;64402;44.708;37.644;2023-04-06T14:30:40;12.92;66.14
75786;DHT22;64402;44.708;37.644;2023-04-06T14:33:06;12.87;65.91
75786;DHT22;64402;44.708;37.644;2023-04-06T14:35:32;12.82;66.59
75786;DHT22;64402;44.708;37.644;2023-04-06T14:37:58;12.58;67.48
75786;DHT22;64402;44.708;37.644;2023-04-06T14:40:25;12.33;68.10
75786;DHT22;64402;44.708;37.644;2023-04-06T14:42:51;12.02;68.93
75786;DHT22;64402;44.708;37.644;2023-04-06T14:45:17;11.74;70.35
75786;DHT22;64402;44.708;37.644;2023-04-06T14:47:45;11.66;71.16
75786;DHT22;64402;44.708;37.644;2023-04-06T14:50:11;11.60;71.02
75786;DHT22;64402;44.708;37.644;2023-04-06T14:52:37;11.60;71.14
75786;DHT22;64402;44.708;37.644;2023-04-06T14:55:04;11.64;71.08
75786;DHT22;64402;44.708;37.644;2023-04-06T14:57:30;11.70;71.48
75786;DHT22;64402;44.708;37.644;2023-04-06T14:59:57;11.83;71.25
75786;DHT22;64402;44.708;37.644;2023-04-06T15:02:23;11.87;70.28
75786;DHT22;64402;44.708;37.644;2023-04-06T15:04:49;11.97;70.87
75786;DHT22;64402;44.708;37.644;2023-04-06T15:07:15;11.99;69.71
75786;DHT22;64402;44.708;37.644;2023-04-06T15:09:41;11.97;70.52
75786;DHT22;64402;44.708;37.644;2023-04-06T15:12:07;11.99;70.84
75786;DHT22;64402;44.708;37.644;2023-04-06T15:14:33;12.03;70.17
75786;DHT22;64402;44.708;37.644;2023-04-06T15:16:59;12.07;69.96
75786;DHT22;64402;44.708;37.644;2023-04-06T15:19:25;12.03;71.33
75786;DHT22;64402;44.708;37.644;2023-04-06T15:21:52;11.99;71.00
75786;DHT22;64402;44.708;37.644;2023-04-06T15:24:18;11.93;70.40
75786;DHT22;64402;44.708;37.644;2023-04-06T15:26:44;11.76;71.08
75786;DHT22;64402;44.708;37.644;2023-04-06T15:29:11;11.71;71.45
75786;DHT22;64402;44.708;37.644;2023-04-06T15:31:37;11.68;71.55
75786;DHT22;64402;44.708;37.644;2023-04-06T15:34:05;11.66;71.52
75786;DHT22;64402;44.708;37.644;2023-04-06T15:36:33;11.70;71.34
75786;DHT22;64402;44.708;37.644;2023-04-06T15:39:00;11.64;71.42
75786;DHT22;64402;44.708;37.644;2023-04-06T15:41:26;11.53;71.66
75786;DHT22;64402;44.708;37.644;2023-04-06T15:43:54;11.57;72.30
75786;DHT22;64402;44.708;37.644;2023-04-06T15:46:20;11.59;72.09
75786;DHT22;64402;44.708;37.644;2023-04-06T15:48:47;11.59;72.39
75786;DHT22;64402;44.708;37.644;2023-04-06T15:51:13;11.52;72.01
75786;DHT22;64402;44.708;37.644;2023-04-06T15:53:39;11.52;72.12
75786;DHT22;64402;44.708;37.644;2023-04-06T15:56:06;11.54;71.72
75786;DHT22;64402;44.708;37.644;2023-04-06T15:58:34;11.53;71.87
75786;DHT22;64402;44.708;37.644;2023-04-06T16:01:01;11.49;72.06
75786;DHT22;64402;44.708;37.644;2023-04-06T16:03:35;11.47;72.02
75786;DHT22;64402;44.708;37.644;2023-04-06T16:06:01;11.42;71.69
75786;DHT22;64402;44.708;37.644;2023-04-06T16:08:27;11.38;71.85
75786;DHT22;64402;44.708;37.644;2023-04-06T16:10:53;11.27;71.03
75786;DHT22;64402;44.708;37.644;2023-04-06T16:13:19;11.24;72.03
75786;DHT22;64402;44.708;37.644;2023-04-06T16:15:49;11.24;71.99
75786;DHT22;64402;44.708;37.644;2023-04-06T16:18:16;11.19;71.90
75786;DHT22;64402;44.708;37.644;2023-04-06T16:20:42;11.17;71.97
75786;DHT22;64402;44.708;37.644;2023-04-06T16:23:08;11.18;72.45
75786;DHT22;64402;44.708;37.644;2023-04-06T16:25:35;11.22;72.10
75786;DHT22;64402;44.708;37.644;2023-04-06T16:28:01;11.22;71.74
75786;DHT22;64402;44.708;37.644;2023-04-06T16:30:27;11.29;71.78
75786;DHT22;64402;44.708;37.644;2023-04-06T16:32:56;11.26;70.90
75786;DHT22;64402;44.708;37.644;2023-04-06T16:35:22;11.26;71.35
75786;DHT22;64402;44.708;37.644;2023-04-06T16:37:48;11.25;71.19
75786;DHT22;64402;44.708;37.644;2023-04-06T16:40:15;11.25;71.16
75786;DHT22;64402;44.708;37.644;2023-04-06T16:42:44;11.20;70.92
75786;DHT22;64402;44.708;37.644;2023-04-06T16:45:11;11.17;71.32
75786;DHT22;64402;44.708;37.644;2023-04-06T16:47:38;11.08;70.50
75786;DHT22;64402;44.708;37.644;2023-04-06T16:50:05;10.97;70.42
75786;DHT22;64402;44.708;37.644;2023-04-06T16:52:31;10.84;71.51
75786;DHT22;64402;44.708;37.644;2023-04-06T16:54:58;10.80;71.78
75786;DHT22;64402;44.708;37.644;2023-04-06T16:57:24;10.77;71.80
75786;DHT22;64402;44.708;37.644;2023-04-06T16:59:55;10.72;71.80
75786;DHT22;64402;44.708;37.644;2023-04-06T17:02:22;10.70;71.93